Time;durP1;ratioP1;P1;durP2;ratioP2;P2;SDS_P1;SDS_P2;PMS_P1;PMS_P2;Temp;Humidity;BMP_temperature;BMP_pressure;BME280_temperature;BME280_humidity;BME280_pressure;Samples;Min_cycle;Max_cycle;Signal;HPM_P1;HPM_P2
2023/04/18 00:00:17;;;;;;;;;6.00;5.00;;;;;10.58;71.90;100493.69;5059317;28;45591;-71
2023/04/18 00:02:44;;;;;;;;;9.50;7.75;;;;;10.55;72.24;100497.97;5059799;28;45528;-69
2023/04/18 00:05:11;;;;;;;;;7.75;7.25;;;;;10.52;71.82;100502.22;5074634;28;45356;-72
2023/04/18 00:07:37;;;;;;;;;4.50;4.00;;;;;10.49;71.75;100500.41;5069657;28;45445;-73
2023/04/18 00:10:04;;;;;;;;;6.25;5.00;;;;;10.46;72.10;100499.41;5071355;28;45501;-72
2023/04/18 00:12:33;;;;;;;;;7.75;7.00;;;;;10.46;71.97;100502.91;5064549;28;45464;-67
2023/04/18 00:14:59;;;;;;;;;8.00;5.75;;;;;10.39;72.23;100487.91;5064569;28;45352;-72
2023/04/18 00:17:29;;;;;;;;;11.25;7.75;;;;;10.39;73.02;100500.97;5069223;28;45496;-73
2023/04/18 00:19:57;;;;;;;;;8.50;8.00;;;;;10.30;72.97;100498.06;5072632;28;45844;-74
2023/04/18 00:22:23;;;;;;;;;8.00;6.25;;;;;10.20;73.02;100493.38;5077546;28;45543;-74
2023/04/18 00:24:49;;;;;;;;;7.75;6.00;;;;;10.17;73.60;100502.03;5077614;28;45366;-74
2023/04/18 00:27:17;;;;;;;;;7.50;7.00;;;;;10.12;73.40;100494.03;5077420;28;45547;-71
2023/04/18 00:29:43;;;;;;;;;8.25;8.00;;;;;10.13;73.34;100494.94;5073913;28;45447;-67
2023/04/18 00:32:08;;;;;;;;;6.25;6.25;;;;;10.01;73.17;100471.03;5058871;28;45452;-70
2023/04/18 00:34:34;;;;;;;;;8.75;7.00;;;;;10.14;73.31;100494.97;5077846;28;45703;-70
2023/04/18 00:36:59;;;;;;;;;7.00;6.50;;;;;10.06;72.52;100485.13;5075873;27;46030;-73
2023/04/18 00:39:25;;;;;;;;;7.50;7.50;;;;;10.08;71.74;100480.84;5073030;28;45342;-70
2023/04/18 00:41:50;;;;;;;;;6.25;6.25;;;;;10.07;71.82;100481.69;5063394;28;45447;-70
2023/04/18 00:44:16;;;;;;;;;9.00;9.00;;;;;10.06;72.13;100478.19;5076013;28;45488;-69
2023/04/18 00:46:42;;;;;;;;;8.50;7.00;;;;;10.04;72.29;100469.41;5075281;28;45430;-68
2023/04/18 00:49:09;;;;;;;;;8.25;6.75;;;;;10.06;72.34;100472.06;5067011;28;45552;-69
2023/04/18 00:51:34;;;;;;;;;5.75;5.00;;;;;9.98;72.14;100450.09;5073077;28;45648;-68
2023/04/18 00:54:02;;;;;;;;;4.75;4.75;;;;;9.96;72.53;100450.91;5076666;28;45497;-69
2023/04/18 00:56:28;;;;;;;;;6.00;5.00;;;;;9.97;72.96;100457.03;5063102;28;45452;-68
2023/04/18 00:58:55;;;;;;;;;8.00;8.00;;;;;9.91;73.47;100456.84;5072561;28;45428;-72
2023/04/18 01:01:22;;;;;;;;;7.00;5.00;;;;;9.88;73.15;100457.63;5074731;28;45355;-72
2023/04/18 01:03:47;;;;;;;;;8.00;6.75;;;;;9.80;72.29;100438.22;5076764;28;45567;-70
2023/04/18 01:06:13;;;;;;;;;5.00;5.00;;;;;9.83;72.50;100451.38;5076643;28;45826;-68
2023/04/18 01:08:39;;;;;;;;;7.75;7.00;;;;;9.79;73.05;100441.69;5075259;28;45567;-68
2023/04/18 01:11:05;;;;;;;;;7.75;6.00;;;;;9.75;72.61;100430.28;5069677;28;45531;-68
2023/04/18 01:13:30;;;;;;;;;8.75;7.50;;;;;9.73;72.70;100437.16;5059306;28;45595;-72
2023/04/18 01:15:57;;;;;;;;;6.00;6.00;;;;;9.70;72.80;100430.97;5052465;28;46906;-67
2023/04/18 01:18:24;;;;;;;;;6.50;6.50;;;;;9.67;73.21;100423.94;5075257;28;45441;-71
2023/04/18 01:20:51;;;;;;;;;6.25;5.00;;;;;9.60;73.55;100423.69;5074405;28;45372;-72
2023/04/18 01:23:18;;;;;;;;;6.75;6.75;;;;;9.54;73.51;100413.94;5076046;28;45576;-72
2023/04/18 01:25:45;;;;;;;;;7.00;7.00;;;;;9.36;73.67;100419.44;5073548;28;45429;-68
2023/04/18 01:28:13;;;;;;;;;6.75;5.00;;;;;9.23;74.15;100418.16;5075561;28;45540;-70
2023/04/18 01:30:39;;;;;;;;;6.50;6.00;;;;;9.21;74.00;100406.81;5075873;28;45526;-74
2023/04/18 01:33:05;;;;;;;;;7.00;6.50;;;;;9.23;74.39;100412.94;5067402;28;45443;-67
2023/04/18 01:35:33;;;;;;;;;6.50;6.50;;;;;9.16;74.93;100411.84;5072028;28;45329;-68
2023/04/18 01:37:59;;;;;;;;;9.50;9.50;;;;;9.18;74.75;100411.03;5072678;28;45383;-73
2023/04/18 01:40:25;;;;;;;;;8.25;6.75;;;;;9.21;74.61;100413.72;5073070;28;45517;-76
2023/04/18 01:42:50;;;;;;;;;7.00;6.00;;;;;9.20;74.74;100405.00;5070155;28;45469;-77
2023/04/18 01:45:17;;;;;;;;;9.00;8.50;;;;;9.15;75.28;100406.56;5075748;28;45570;-73
2023/04/18 01:47:43;;;;;;;;;6.00;5.25;;;;;9.15;75.01;100398.75;5076079;28;45481;-72
2023/04/18 01:50:09;;;;;;;;;7.25;6.50;;;;;9.05;74.79;100388.88;5076361;28;45309;-69
2023/04/18 01:52:34;;;;;;;;;5.25;5.25;;;;;9.07;74.14;100385.50;5074363;28;45629;-67
2023/04/18 01:55:03;;;;;;;;;7.25;6.50;;;;;9.04;73.74;100385.38;5073954;28;45953;-73
2023/04/18 01:57:29;;;;;;;;;7.75;4.75;;;;;9.11;73.62;100397.78;5075096;28;45523;-68
2023/04/18 01:59:55;;;;;;;;;7.50;7.25;;;;;9.08;73.45;100392.47;5074210;28;45555;-68
2023/04/18 02:02:21;;;;;;;;;7.00;7.00;;;;;9.03;73.57;100382.72;5074986;28;45442;-71
2023/04/18 02:04:46;;;;;;;;;7.25;5.25;;;;;8.99;73.47;100380.84;5074960;28;45481;-71
2023/04/18 02:07:12;;;;;;;;;5.25;5.25;;;;;9.03;73.54;100377.50;5074489;28;45398;-70
2023/04/18 02:09:37;;;;;;;;;7.75;7.00;;;;;9.03;73.49;100387.94;5074846;28;45496;-72
2023/04/18 02:12:03;;;;;;;;;5.50;5.25;;;;;9.02;73.75;100394.00;5071889;28;45382;-73
2023/04/18 02:14:31;;;;;;;;;7.50;7.00;;;;;8.98;74.08;100385.19;5074760;28;46182;-72
2023/04/18 02:16:57;;;;;;;;;8.75;8.50;;;;;8.92;74.75;100388.47;5074427;28;45381;-68
2023/04/18 02:19:23;;;;;;;;;6.25;5.25;;;;;8.93;74.78;100394.53;5074745;28;45587;-71
2023/04/18 02:21:49;;;;;;;;;7.75;5.50;;;;;8.86;74.98;100379.56;5074358;28;45508;-69
2023/04/18 02:24:15;;;;;;;;;10.50;8.50;;;;;8.74;74.77;100375.69;5072976;28;45504;-67
2023/04/18 02:26:41;;;;;;;;;7.25;7.00;;;;;8.77;75.41;100390.53;5075028;28;45556;-71
2023/04/18 02:29:06;;;;;;;;;11.25;8.25;;;;;8.66;74.70;100373.66;5061588;28;45930;-73
2023/04/18 02:31:32;;;;;;;;;6.25;6.25;;;;;8.69;74.74;100382.44;5073421;28;45522;-71
2023/04/18 02:33:59;;;;;;;;;7.00;6.75;;;;;8.72;74.65;100385.16;5074773;28;46519;-71
2023/04/18 02:36:26;;;;;;;;;8.00;8.00;;;;;8.73;74.70;100386.97;5067900;28;45476;-69
2023/04/18 02:38:53;;;;;;;;;8.00;7.75;;;;;8.72;74.77;100392.09;5068465;28;45530;-67
2023/04/18 02:41:19;;;;;;;;;6.00;6.00;;;;;8.68;73.90;100382.41;5074791;28;45480;-67
2023/04/18 02:43:44;;;;;;;;;7.50;7.00;;;;;8.76;73.91;100386.16;5056029;28;45373;-73
2023/04/18 02:46:10;;;;;;;;;8.00;5.50;;;;;8.75;73.46;100386.97;5073206;28;45415;-70
2023/04/18 02:48:36;;;;;;;;;8.75;8.75;;;;;8.75;73.50;100387.91;5076754;28;45313;-68
2023/04/18 02:51:06;;;;;;;;;7.00;7.00;;;;;8.75;73.63;100387.91;5077263;28;45373;-72
2023/04/18 02:53:32;;;;;;;;;9.75;8.50;;;;;8.68;74.74;100385.91;5042074;28;48125;-73
2023/04/18 02:55:58;;;;;;;;;7.75;7.25;;;;;8.70;73.99;100391.16;5058140;28;45571;-74
2023/04/18 02:58:23;;;;;;;;;8.00;7.00;;;;;8.56;74.32;100375.06;5076508;28;45425;-70
2023/04/18 03:00:52;;;;;;;;;8.00;7.25;;;;;8.46;74.60;100379.03;5075971;28;45489;-66
2023/04/18 03:03:17;;;;;;;;;8.00;8.00;;;;;8.36;75.77;100393.41;5076166;28;46521;-74
2023/04/18 03:05:43;;;;;;;;;7.75;6.25;;;;;8.34;75.39;100395.06;5076789;28;45470;-68
2023/04/18 03:08:08;;;;;;;;;7.00;7.00;;;;;8.38;74.96;100395.19;5076752;28;45563;-70
2023/04/18 03:10:34;;;;;;;;;7.00;7.00;;;;;8.31;75.19;100383.66;5061781;28;45594;-74
2023/04/18 03:13:00;;;;;;;;;8.50;7.00;;;;;8.32;75.94;100388.94;5073830;27;45276;-72
2023/04/18 03:15:26;;;;;;;;;11.50;8.50;;;;;8.30;76.66;100387.97;5079114;28;45426;-71
2023/04/18 03:17:52;;;;;;;;;8.00;8.00;;;;;8.32;77.10;100388.03;5078695;27;45489;-74
2023/04/18 03:20:17;;;;;;;;;12.50;11.75;;;;;8.32;77.43;100394.13;5079635;28;45540;-70
2023/04/18 03:22:43;;;;;;;;;11.25;9.00;;;;;8.37;76.73;100394.28;5069479;28;45969;-71
2023/04/18 03:25:08;;;;;;;;;13.00;11.75;;;;;8.30;77.05;100379.31;5072785;28;45427;-72
2023/04/18 03:27:34;;;;;;;;;9.75;9.00;;;;;8.39;76.76;100387.41;5079322;28;45414;-74
2023/04/18 03:30:00;;;;;;;;;11.25;9.75;;;;;8.44;76.43;100401.53;5079333;28;45311;-72
2023/04/18 03:32:25;;;;;;;;;12.00;9.50;;;;;8.45;76.29;100392.88;5079039;28;45417;-72
2023/04/18 03:34:51;;;;;;;;;12.75;9.75;;;;;8.34;76.22;100394.19;5079495;28;45356;-73
2023/04/18 03:37:16;;;;;;;;;9.00;8.50;;;;;8.30;76.36;100402.72;5079171;27;45973;-67
2023/04/18 03:39:42;;;;;;;;;9.50;8.25;;;;;8.24;76.90;100402.50;5079132;28;45431;-71
2023/04/18 03:42:08;;;;;;;;;11.25;9.50;;;;;8.24;76.76;100387.75;5079699;28;46002;-74
2023/04/18 03:44:33;;;;;;;;;8.00;7.75;;;;;8.27;76.21;100386.97;5079781;28;45410;-71
2023/04/18 03:46:59;;;;;;;;;11.50;9.25;;;;;8.19;75.21;100376.28;5078922;28;45492;-66
2023/04/18 03:49:24;;;;;;;;;10.00;9.25;;;;;8.17;75.46;100368.41;5079718;27;45518;-66
2023/04/18 03:51:50;;;;;;;;;10.00;8.50;;;;;8.29;75.38;100380.13;5079245;28;45865;-74
2023/04/18 03:54:16;;;;;;;;;8.75;8.75;;;;;8.30;75.45;100377.56;5060912;28;45307;-74
2023/04/18 03:56:42;;;;;;;;;8.50;7.25;;;;;8.26;75.13;100370.50;5078543;28;45374;-74
2023/04/18 03:59:09;;;;;;;;;12.75;8.50;;;;;8.32;74.52;100375.03;5079661;28;45294;-74
2023/04/18 04:01:34;;;;;;;;;8.25;8.00;;;;;8.31;74.73;100374.13;5061024;28;45453;-76
2023/04/18 04:04:01;;;;;;;;;7.00;7.00;;;;;8.31;74.50;100375.84;5078894;27;45358;-73
2023/04/18 04:06:27;;;;;;;;;5.25;4.25;;;;;8.21;74.32;100359.00;5079899;28;46176;-72
2023/04/18 04:08:52;;;;;;;;;7.25;6.75;;;;;8.27;74.77;100377.44;5085335;28;45469;-75
2023/04/18 04:11:18;;;;;;;;;9.25;8.00;;;;;8.22;74.87;100375.53;5085275;28;46020;-71
2023/04/18 04:13:43;;;;;;;;;7.75;7.75;;;;;8.18;75.21;100377.13;5085992;28;45526;-75
2023/04/18 04:16:09;;;;;;;;;7.75;7.75;;;;;8.11;75.04;100368.19;5085197;28;45272;-75
2023/04/18 04:18:34;;;;;;;;;7.75;7.00;;;;;8.01;74.73;100362.59;5084657;28;45319;-71
2023/04/18 04:21:00;;;;;;;;;8.25;7.50;;;;;7.93;74.73;100381.41;5078811;28;45971;-75
2023/04/18 04:23:26;;;;;;;;;8.25;7.75;;;;;7.93;74.99;100377.91;5078970;28;45542;-76
2023/04/18 04:25:52;;;;;;;;;11.00;10.00;;;;;7.87;75.37;100373.38;5078229;28;45393;-75
2023/04/18 04:28:22;;;;;;;;;7.50;7.25;;;;;7.75;75.68;100372.91;5061315;28;45350;-70
2023/04/18 04:30:52;;;;;;;;;7.00;7.00;;;;;7.71;75.94;100369.28;5077807;28;45507;-69
2023/04/18 04:33:27;;;;;;;;;8.25;8.25;;;;;7.69;76.13;100368.34;5078637;28;45514;-72
2023/04/18 04:35:53;;;;;;;;;8.00;7.75;;;;;7.65;76.27;100371.66;5050425;28;45750;-74
2023/04/18 04:38:21;;;;;;;;;8.75;8.00;;;;;7.46;76.44;100379.56;5040688;28;45517;-70
2023/04/18 04:40:48;;;;;;;;;8.75;8.00;;;;;7.28;76.42;100370.22;5041623;28;46356;-74
2023/04/18 04:43:19;;;;;;;;;6.00;6.00;;;;;7.22;76.17;100371.66;5078349;28;45346;-72
2023/04/18 04:45:48;;;;;;;;;7.00;7.00;;;;;7.24;75.93;100380.41;5078025;28;45521;-71
2023/04/18 04:48:14;;;;;;;;;8.00;8.00;;;;;7.15;76.48;100365.34;5073609;28;45540;-72
2023/04/18 04:50:40;;;;;;;;;8.00;7.00;;;;;7.29;77.11;100373.69;5075711;28;45354;-73
2023/04/18 04:53:07;;;;;;;;;7.50;7.50;;;;;7.32;77.04;100379.91;5076778;28;45288;-74
2023/04/18 04:55:33;;;;;;;;;9.25;9.25;;;;;7.35;76.63;100377.41;5072879;28;45574;-68
2023/04/18 04:57:59;;;;;;;;;7.00;6.50;;;;;7.35;75.52;100380.00;5077471;27;45603;-75
2023/04/18 05:00:24;;;;;;;;;7.00;6.25;;;;;7.35;75.12;100385.22;5076732;28;45480;-68
2023/04/18 05:02:54;;;;;;;;;10.75;8.75;;;;;7.34;74.65;100380.84;5076919;28;45428;-68
2023/04/18 05:05:20;;;;;;;;;7.50;7.25;;;;;7.34;75.26;100387.75;5076794;28;45580;-71
2023/04/18 05:07:46;;;;;;;;;8.50;7.75;;;;;7.25;75.96;100377.00;5076783;28;45442;-70
2023/04/18 05:10:11;;;;;;;;;10.75;8.50;;;;;7.37;75.76;100393.06;5077074;28;45312;-73
2023/04/18 05:12:37;;;;;;;;;10.50;8.50;;;;;7.33;76.09;100379.06;5076811;28;45506;-68
2023/04/18 05:15:03;;;;;;;;;9.00;9.00;;;;;7.42;75.90;100396.75;5076081;28;45733;-72
2023/04/18 05:17:28;;;;;;;;;7.00;6.25;;;;;7.44;75.88;100395.13;5077069;27;45390;-70
2023/04/18 05:19:54;;;;;;;;;8.00;7.75;;;;;7.39;75.18;100399.22;5076941;28;46121;-73
2023/04/18 05:22:19;;;;;;;;;9.00;8.25;;;;;7.33;75.51;100394.66;5077501;28;45493;-75
2023/04/18 05:24:45;;;;;;;;;126.50;109.50;;;;;7.26;75.39;100379.66;5074101;28;45636;-75
2023/04/18 05:27:13;;;;;;;;;62.50;48.25;;;;;7.35;75.40;100390.41;5066733;28;45237;-69
2023/04/18 05:29:38;;;;;;;;;12.00;12.00;;;;;7.42;75.99;100395.84;5077343;27;45484;-69
2023/04/18 05:32:05;;;;;;;;;17.00;13.00;;;;;7.44;76.14;100396.81;5076955;28;45477;-71
2023/04/18 05:34:31;;;;;;;;;19.50;17.25;;;;;7.46;75.30;100390.88;5076581;27;45595;-75
2023/04/18 05:36:57;;;;;;;;;13.00;13.00;;;;;7.19;74.83;100374.16;5075529;28;45340;-68
2023/04/18 05:39:23;;;;;;;;;14.00;13.25;;;;;7.22;74.84;100395.97;5076318;28;45400;-68
2023/04/18 05:41:48;;;;;;;;;11.25;10.00;;;;;7.18;74.95;100396.63;5076656;28;45593;-71
2023/04/18 05:44:14;;;;;;;;;12.00;9.25;;;;;7.18;74.86;100388.84;5058718;28;45504;-69
2023/04/18 05:46:41;;;;;;;;;8.75;7.50;;;;;7.18;74.24;100383.63;5058632;28;45577;-73
2023/04/18 05:49:07;;;;;;;;;9.25;8.00;;;;;7.28;75.11;100393.59;5076587;28;45964;-70
2023/04/18 05:51:32;;;;;;;;;9.25;9.25;;;;;7.35;74.83;100384.34;5076752;28;45565;-73
2023/04/18 05:53:58;;;;;;;;;9.25;9.00;;;;;7.53;74.99;100402.38;5077264;28;45563;-69
2023/04/18 05:56:23;;;;;;;;;11.00;7.00;;;;;7.54;75.13;100393.75;5076737;28;45508;-68
2023/04/18 05:58:50;;;;;;;;;17.75;16.50;;;;;7.54;75.31;100396.34;5076516;28;46237;-68
2023/04/18 06:01:19;;;;;;;;;8.25;6.75;;;;;7.46;75.51;100402.94;5076898;28;45444;-72
2023/04/18 06:03:44;;;;;;;;;10.75;10.75;;;;;7.45;75.94;100407.25;5077259;28;45450;-69
2023/04/18 06:06:10;;;;;;;;;8.75;8.75;;;;;7.42;76.34;100407.16;5068126;28;45310;-68
2023/04/18 06:08:37;;;;;;;;;11.00;9.50;;;;;7.46;76.30;100408.16;5052591;28;46804;-70
2023/04/18 06:11:03;;;;;;;;;9.25;8.00;;;;;7.47;75.91;100410.81;5066740;28;45537;-72
2023/04/18 06:13:29;;;;;;;;;9.25;8.50;;;;;7.51;75.99;100399.72;5076517;28;45358;-74
2023/04/18 06:15:54;;;;;;;;;12.50;12.00;;;;;7.57;76.01;100399.94;5076240;28;45338;-74
2023/04/18 06:18:20;;;;;;;;;12.50;10.75;;;;;7.69;75.69;100399.56;5076956;28;45866;-75
2023/04/18 06:20:46;;;;;;;;;12.00;11.75;;;;;7.80;75.51;100399.06;5077267;28;45905;-69
2023/04/18 06:23:11;;;;;;;;;11.00;11.00;;;;;7.95;75.40;100404.88;5076414;28;45394;-75
2023/04/18 06:25:37;;;;;;;;;9.75;8.00;;;;;7.99;74.78;100396.34;5076364;28;45371;-75
2023/04/18 06:28:02;;;;;;;;;11.00;11.00;;;;;8.04;74.79;100394.81;5076358;28;45875;-75
2023/04/18 06:30:28;;;;;;;;;11.25;11.00;;;;;8.01;74.77;100386.00;5076679;28;45608;-75
2023/04/18 06:32:54;;;;;;;;;11.75;11.00;;;;;8.44;74.63;100401.53;5076975;28;45804;-75
2023/04/18 06:35:19;;;;;;;;;13.00;11.75;;;;;10.81;69.92;100395.03;5076554;28;45421;-76
2023/04/18 06:37:45;;;;;;;;;16.00;14.50;;;;;13.38;62.42;100385.72;5076992;28;45933;-74
2023/04/18 06:40:11;;;;;;;;;10.00;9.25;;;;;15.28;53.72;100366.09;5076063;28;45656;-72
2023/04/18 06:42:37;;;;;;;;;10.00;8.75;;;;;16.77;50.04;100367.72;5077264;28;45260;-73
2023/04/18 06:45:04;;;;;;;;;15.00;13.50;;;;;18.02;47.65;100360.63;5057839;27;45608;-69
2023/04/18 06:47:30;;;;;;;;;21.00;18.00;;;;;19.12;45.02;100358.25;5076307;28;46226;-71
2023/04/18 06:49:55;;;;;;;;;57.00;44.25;;;;;20.14;43.62;100352.88;5051670;28;45316;-73
2023/04/18 06:52:21;;;;;;;;;18.75;18.25;;;;;21.06;41.64;100343.59;5073216;27;45346;-72
2023/04/18 06:54:47;;;;;;;;;20.25;19.00;;;;;21.85;39.69;100351.94;5079775;28;45354;-72
2023/04/18 06:57:12;;;;;;;;;22.50;20.75;;;;;22.63;37.70;100353.91;5079919;28;46437;-71
2023/04/18 06:59:40;;;;;;;;;19.00;18.00;;;;;23.17;36.31;100348.19;5079779;28;45539;-71
2023/04/18 07:02:07;;;;;;;;;15.50;14.25;;;;;23.65;35.69;100346.94;5079763;28;45544;-70
2023/04/18 07:04:32;;;;;;;;;18.50;17.75;;;;;24.12;35.08;100328.75;5079264;28;45493;-71
2023/04/18 07:06:58;;;;;;;;;16.25;15.75;;;;;24.60;33.93;100344.22;5079603;28;45540;-73
2023/04/18 07:09:23;;;;;;;;;14.00;13.00;;;;;24.87;35.06;100346.06;5078986;28;45554;-71
2023/04/18 07:11:50;;;;;;;;;12.33;11.00;;;;;25.18;33.65;100344.13;5079495;28;45508;-69
2023/04/18 07:14:16;;;;;;;;;13.33;12.33;;;;;25.36;33.64;100347.13;5079381;28;45415;-69
2023/04/18 07:16:41;;;;;;;;;14.00;14.00;;;;;26.03;32.36;100340.34;5079233;28;45501;-69
2023/04/18 07:19:07;;;;;;;;;11.00;11.00;;;;;26.38;32.58;100342.56;5079348;28;45850;-68
2023/04/18 07:21:32;;;;;;;;;12.67;12.00;;;;;26.92;31.51;100336.88;5079676;28;45623;-67
2023/04/18 07:23:58;;;;;;;;;13.33;13.33;;;;;26.99;31.01;100327.63;5079245;28;45406;-74
2023/04/18 07:26:25;;;;;;;;;17.00;15.00;;;;;27.48;30.88;100316.66;5078122;27;46064;-73
2023/04/18 07:28:51;;;;;;;;;11.33;11.33;;;;;27.62;30.38;100330.34;5060601;28;45354;-72
2023/04/18 07:31:18;;;;;;;;;14.33;12.67;;;;;27.91;29.80;100326.41;5078552;28;45282;-73
2023/04/18 07:33:43;;;;;;;;;13.00;12.67;;;;;28.08;29.48;100312.19;5078168;28;45388;-70
2023/04/18 07:36:09;;;;;;;;;14.00;13.00;;;;;28.79;29.93;100332.13;5062461;28;45539;-67
2023/04/18 07:38:35;;;;;;;;;17.00;15.33;;;;;29.29;28.39;100320.72;5078852;28;45552;-67
2023/04/18 07:41:02;;;;;;;;;15.00;12.67;;;;;29.78;29.43;100317.28;5076932;28;45431;-70
2023/04/18 07:43:28;;;;;;;;;15.00;13.00;;;;;29.61;28.68;100312.78;5077787;28;45399;-68
2023/04/18 07:45:53;;;;;;;;;15.67;14.00;;;;;29.71;29.03;100316.72;5061108;28;46201;-70
2023/04/18 07:48:23;;;;;;;;;14.00;12.33;;;;;30.08;28.34;100309.34;5077198;28;45567;-70
2023/04/18 07:50:49;;;;;;;;;13.00;13.00;;;;;30.62;27.86;100312.63;5075769;28;45327;-69
2023/04/18 07:53:15;;;;;;;;;13.33;13.33;;;;;30.38;27.84;100305.94;5078871;28;45438;-70
2023/04/18 07:55:42;;;;;;;;;12.67;12.00;;;;;30.42;28.50;100302.09;5074442;28;47072;-70
2023/04/18 07:58:08;;;;;;;;;12.00;11.33;;;;;30.67;27.41;100302.44;5042699;28;45431;-70
2023/04/18 08:00:35;;;;;;;;;12.33;11.33;;;;;31.59;27.77;100300.66;5071140;28;45624;-68
2023/04/18 08:03:01;;;;;;;;;14.00;13.00;;;;;32.65;25.90;100307.47;5063158;28;45443;-68
2023/04/18 08:05:27;;;;;;;;;13.00;12.00;;;;;33.16;24.45;100296.84;5074503;28;45547;-71
2023/04/18 08:07:53;;;;;;;;;15.67;14.33;;;;;33.52;23.46;100294.41;5065386;28;45845;-68
2023/04/18 08:10:18;;;;;;;;;12.67;11.67;;;;;33.26;25.08;100302.50;5078636;28;45461;-69
2023/04/18 08:12:44;;;;;;;;;11.33;10.33;;;;;33.87;22.59;100297.38;5078041;28;45323;-70
2023/04/18 08:15:10;;;;;;;;;13.67;13.33;;;;;34.10;22.68;100290.25;5066491;28;46078;-69
2023/04/18 08:17:37;;;;;;;;;11.67;11.00;;;;;34.06;24.00;100296.88;5077936;28;45452;-76
2023/04/18 08:20:06;;;;;;;;;11.00;8.67;;;;;34.46;22.33;100277.72;5077666;28;45496;-68
2023/04/18 08:22:32;;;;;;;;;10.67;10.00;;;;;34.78;21.73;100291.63;5077447;28;46489;-69
2023/04/18 08:24:59;;;;;;;;;12.33;12.00;;;;;35.37;21.56;100282.59;5076452;28;46273;-68
2023/04/18 08:27:25;;;;;;;;;11.67;11.00;;;;;34.98;21.39;100281.97;5077890;28;45474;-69
2023/04/18 08:29:51;;;;;;;;;11.33;11.33;;;;;34.83;22.85;100291.28;5078395;28;45398;-75
2023/04/18 08:32:16;;;;;;;;;11.67;10.67;;;;;35.68;22.16;100279.34;5078077;28;45232;-76
2023/04/18 08:34:42;;;;;;;;;10.00;9.67;;;;;35.80;20.30;100287.38;5077278;28;46319;-69
2023/04/18 08:37:08;;;;;;;;;13.00;12.67;;;;;35.70;20.49;100280.09;5052194;28;45922;-68
2023/04/18 08:39:34;;;;;;;;;11.33;10.67;;;;;35.83;19.73;100281.72;5069318;28;45556;-72
2023/04/18 08:42:00;;;;;;;;;10.33;10.33;;;;;36.01;18.96;100279.38;5077996;28;45453;-69
2023/04/18 08:44:29;;;;;;;;;11.67;11.33;;;;;35.82;19.67;100285.41;5076538;28;45398;-69
2023/04/18 08:46:56;;;;;;;;;10.67;10.67;;;;;35.95;20.32;100271.72;5076774;28;45600;-69
2023/04/18 08:49:23;;;;;;;;;11.00;9.67;;;;;36.26;20.03;100281.97;5077513;28;45414;-69
2023/04/18 08:51:50;;;;;;;;;12.33;11.33;;;;;36.52;19.04;100275.22;5077731;28;45496;-70
2023/04/18 08:54:18;;;;;;;;;8.33;8.33;;;;;36.61;18.99;100270.88;5076644;28;45427;-70
2023/04/18 08:56:44;;;;;;;;;11.33;10.67;;;;;36.76;19.58;100277.75;5076739;28;45474;-70
2023/04/18 08:59:10;;;;;;;;;19.00;16.33;;;;;36.69;18.60;100276.56;5077311;28;45374;-71
2023/04/18 09:02:03;;;;;;;;;19.67;19.33;;;;;35.79;18.99;100277.50;5075854;28;45576;-70
2023/04/18 09:04:36;;;;;;;;;12.33;11.33;;;;;36.33;18.83;100273.16;5052040;28;45530;-70
2023/04/18 09:07:08;;;;;;;;;12.67;11.33;;;;;36.67;17.82;100281.28;5077555;28;45375;-70
2023/04/18 09:09:52;;;;;;;;;12.00;12.00;;;;;36.32;18.97;100278.72;5075693;28;45875;-70
2023/04/18 09:12:21;;;;;;;;;11.00;10.00;;;;;35.75;18.77;100283.28;5075856;28;45502;-79
2023/04/18 09:14:49;;;;;;;;;10.67;10.67;;;;;35.70;19.43;100277.38;5073651;28;45575;-69
2023/04/18 09:17:40;;;;;;;;;10.67;10.67;;;;;34.80;19.99;100286.97;5072623;28;45374;-77
2023/04/18 09:20:10;;;;;;;;;11.00;10.00;;;;;34.63;20.59;100284.59;5058422;28;45339;-68
2023/04/18 09:22:56;;;;;;;;;12.00;9.00;;;;;34.58;21.48;100270.50;5070978;28;45504;-69
2023/04/18 09:25:34;;;;;;;;;12.00;10.00;;;;;35.22;20.57;100268.38;5056609;28;46919;-69
2023/04/18 09:28:01;;;;;;;;;9.33;8.33;;;;;35.82;20.24;100266.38;5074604;28;45507;-71
2023/04/18 09:30:38;;;;;;;;;10.67;10.67;;;;;35.16;20.56;100268.00;5056540;28;45386;-74
2023/04/18 09:33:08;;;;;;;;;19.67;18.00;;;;;34.89;20.69;100269.09;5076242;28;45596;-72
2023/04/18 09:35:38;;;;;;;;;11.00;10.67;;;;;34.75;20.97;100272.84;5076395;28;46108;-77
2023/04/18 09:38:05;;;;;;;;;21.00;19.00;;;;;34.66;21.37;100265.44;5076032;28;45485;-78
2023/04/18 09:40:31;;;;;;;;;11.33;11.00;;;;;34.73;20.38;100268.53;5072858;28;45477;-76
2023/04/18 09:42:57;;;;;;;;;10.67;10.00;;;;;34.81;21.05;100272.38;5077352;28;46587;-77
2023/04/18 09:45:23;;;;;;;;;10.33;10.33;;;;;34.70;19.96;100258.78;5076923;28;45486;-78
2023/04/18 09:47:50;;;;;;;;;13.00;12.33;;;;;34.00;21.16;100271.13;5076075;28;45422;-76
2023/04/18 09:50:17;;;;;;;;;10.33;10.33;;;;;34.41;21.49;100263.66;5076526;28;45445;-78
2023/04/18 09:52:44;;;;;;;;;12.33;11.00;;;;;34.75;20.54;100270.16;5077186;28;45237;-78
2023/04/18 09:55:16;;;;;;;;;14.00;13.33;;;;;34.02;20.44;100265.56;5076832;28;45552;-76
2023/04/18 09:57:45;;;;;;;;;9.00;8.00;;;;;33.07;20.91;100259.56;5055879;28;45472;-78
2023/04/18 10:00:22;;;;;;;;;44.75;38.00;;;;;32.30;21.57;100259.28;5038606;28;45830;-74
2023/04/18 10:02:59;;;;;;;;;12.67;11.00;;;;;31.95;22.49;100264.22;5070843;28;45501;-78
2023/04/18 10:05:35;;;;;;;;;8.33;8.33;;;;;31.93;22.83;100256.19;5075807;28;46275;-76
2023/04/18 10:08:01;;;;;;;;;13.33;13.33;;;;;31.65;22.91;100257.09;5076454;28;45422;-72
2023/04/18 10:10:27;;;;;;;;;49.00;41.00;;;;;31.66;22.37;100248.88;5076270;28;45476;-77
2023/04/18 10:12:56;;;;;;;;;13.67;13.67;;;;;31.64;22.20;100244.56;5075183;28;45479;-75
2023/04/18 10:15:25;;;;;;;;;12.00;12.00;;;;;31.63;23.43;100246.38;5053715;28;46444;-75
2023/04/18 10:17:55;;;;;;;;;12.67;11.33;;;;;31.78;23.27;100241.84;5063177;28;45452;-77
2023/04/18 10:20:28;;;;;;;;;14.33;12.33;;;;;32.01;21.67;100239.53;5075892;28;45588;-74
2023/04/18 10:22:55;;;;;;;;;9.00;9.00;;;;;32.14;23.01;100243.19;5072207;28;45288;-79
2023/04/18 10:25:33;;;;;;;;;11.33;10.00;;;;;31.94;22.65;100241.75;5070786;28;46061;-77
2023/04/18 10:28:03;;;;;;;;;13.00;11.33;;;;;32.09;22.71;100242.59;5067849;28;45456;-76
2023/04/18 10:30:41;;;;;;;;;10.33;10.00;;;;;32.13;22.22;100236.03;5075295;28;45387;-75
2023/04/18 10:33:25;;;;;;;;;12.00;11.33;;;;;31.48;23.60;100232.00;5075885;28;45567;-75
2023/04/18 10:36:19;;;;;;;;;11.00;10.33;;;;;31.63;22.56;100232.88;5075336;28;46105;-70
2023/04/18 10:38:58;;;;;;;;;16.00;15.33;;;;;31.61;22.94;100225.84;5053448;28;45394;-71
2023/04/18 10:41:25;;;;;;;;;13.67;12.67;;;;;31.74;23.27;100218.72;5065666;28;45276;-72
2023/04/18 10:44:05;;;;;;;;;13.00;12.00;;;;;31.45;22.62;100216.00;5069764;28;45458;-70
2023/04/18 10:46:32;;;;;;;;;10.00;9.00;;;;;31.48;23.33;100217.66;5074824;28;46060;-70
2023/04/18 10:49:17;;;;;;;;;11.33;11.00;;;;;30.62;22.55;100220.09;5076190;28;45743;-70
2023/04/18 10:51:48;;;;;;;;;9.00;8.00;;;;;29.56;22.70;100221.47;5061325;28;45533;-70
2023/04/18 10:54:36;;;;;;;;;11.00;10.67;;;;;28.85;24.35;100222.50;5076354;28;45502;-78
2023/04/18 10:57:02;;;;;;;;;10.00;8.67;;;;;28.52;24.03;100214.31;5056513;28;47419;-70
2023/04/18 10:59:30;;;;;;;;;10.00;8.67;;;;;27.93;24.44;100218.91;5076012;28;45427;-75
2023/04/18 11:02:03;;;;;;;;;11.67;11.33;;;;;27.03;25.57;100211.28;5075753;28;45478;-74
2023/04/18 11:04:29;;;;;;;;;10.00;10.00;;;;;26.41;26.17;100204.97;5057412;28;46308;-72
2023/04/18 11:06:56;;;;;;;;;12.67;10.00;;;;;26.10;26.51;100208.88;5071628;28;46315;-75
2023/04/18 11:09:22;;;;;;;;;11.33;11.00;;;;;25.85;27.26;100213.41;5055669;28;45502;-78
2023/04/18 11:12:09;;;;;;;;;11.67;10.33;;;;;25.94;27.36;100211.31;5069072;28;45324;-80
2023/04/18 11:14:54;;;;;;;;;10.67;10.33;;;;;26.16;27.64;100202.38;5075182;28;45557;-79
2023/04/18 11:17:24;;;;;;;;;10.00;10.00;;;;;26.03;28.17;100202.03;5057635;28;47110;-75
2023/04/18 11:19:59;;;;;;;;;12.67;11.67;;;;;25.76;28.34;100194.09;5075994;28;45589;-73
2023/04/18 11:22:25;;;;;;;;;13.33;11.00;;;;;25.83;28.74;100188.53;5041378;28;45482;-74